createdAt,value
2022-08-26T00:02:29.945Z,63.10
2022-08-26T00:05:34.928Z,60.55
2022-08-26T00:08:49.887Z,60.57
2022-08-26T00:11:55.876Z,59.46
2022-08-26T00:15:00.393Z,59.35
2022-08-26T00:18:16.947Z,59.98
2022-08-26T00:21:27.451Z,60.85
2022-08-26T00:24:32.381Z,59.98
2022-08-26T00:27:37.555Z,58.20
2022-08-26T00:30:43.351Z,58.20
2022-08-26T00:33:50.403Z,58.31
2022-08-26T00:36:55.416Z,58.34
2022-08-26T00:40:00.997Z,59.40
2022-08-26T00:43:10.147Z,59.03
2022-08-26T00:46:30.169Z,58.14
2022-08-26T00:49:40.543Z,55.11
2022-08-26T00:52:47.474Z,57.03
2022-08-26T00:56:04.958Z,57.56
2022-08-26T00:59:13.103Z,57.18
2022-08-26T01:02:21.158Z,58.59
2022-08-26T01:05:26.466Z,57.14
2022-08-26T01:08:32.184Z,54.35
2022-08-26T01:11:37.565Z,52.00
2022-08-26T01:14:42.445Z,49.99
2022-08-26T01:17:52.034Z,46.79
2022-08-26T01:21:15.858Z,44.68
2022-08-26T01:24:22.400Z,47.97
2022-08-26T01:27:32.543Z,43.69
2022-08-26T01:30:41.741Z,42.38
2022-08-26T01:34:09.058Z,41.32
2022-08-26T01:37:18.178Z,46.68
2022-08-26T01:40:27.711Z,46.53
2022-08-26T01:43:35.300Z,41.18
2022-08-26T01:46:39.960Z,44.60
2022-08-26T01:49:47.712Z,49.12
2022-08-26T01:52:56.390Z,49.22
2022-08-26T01:56:03.343Z,47.36
2022-08-26T01:59:13.213Z,46.84
2022-08-26T02:02:18.955Z,46.47
2022-08-26T02:05:23.346Z,45.06
2022-08-26T02:08:42.684Z,44.56
2022-08-26T02:11:48.614Z,44.47
2022-08-26T02:14:59.120Z,43.06
2022-08-26T02:18:06.456Z,43.30
2022-08-26T02:21:14.349Z,43.32
2022-08-26T02:24:23.342Z,44.02
2022-08-26T02:27:34.786Z,42.63
2022-08-26T02:30:41.378Z,43.82
2022-08-26T02:33:46.089Z,43.38
2022-08-26T02:36:51.059Z,42.99
2022-08-26T02:39:55.685Z,42.03
2022-08-26T02:43:01.697Z,42.71
2022-08-26T02:46:06.890Z,44.00
2022-08-26T02:49:11.786Z,42.53
2022-08-26T02:52:16.580Z,42.73
2022-08-26T02:55:21.283Z,43.41
2022-08-26T02:58:29.355Z,44.01
2022-08-26T03:01:37.030Z,43.55
2022-08-26T03:04:58.033Z,43.31
2022-08-26T03:08:07.886Z,44.68
2022-08-26T03:11:15.049Z,43.14
2022-08-26T03:14:19.999Z,43.99
2022-08-26T03:17:25.307Z,44.32
2022-08-26T03:20:31.812Z,44.05
2022-08-26T03:23:36.421Z,44.34
2022-08-26T03:26:52.425Z,44.01
2022-08-26T03:30:16.533Z,43.09
2022-08-26T03:33:21.119Z,44.40
2022-08-26T03:36:25.617Z,44.76
2022-08-26T03:39:31.496Z,45.26
2022-08-26T03:42:41.672Z,43.44
2022-08-26T03:45:49.956Z,44.38
2022-08-26T03:48:56.423Z,44.67
2022-08-26T03:52:01.052Z,44.46
2022-08-26T03:55:09.894Z,44.33
2022-08-26T03:58:14.801Z,45.34
2022-08-26T04:01:19.879Z,45.47
2022-08-26T04:04:24.561Z,44.03
2022-08-26T04:07:29.562Z,47.12
2022-08-26T04:10:39.301Z,47.93
2022-08-26T04:13:44.317Z,48.32
2022-08-26T04:16:49.701Z,48.67
2022-08-26T04:19:55.332Z,49.43
2022-08-26T04:23:00.378Z,50.37
2022-08-26T04:26:05.111Z,51.71
2022-08-26T04:29:13.547Z,52.77
2022-08-26T04:32:18.494Z,53.19
2022-08-26T04:35:26.045Z,53.83
2022-08-26T04:38:31.310Z,54.71
2022-08-26T04:41:35.898Z,56.53
2022-08-26T04:44:42.021Z,55.31
2022-08-26T04:47:47.669Z,55.32
2022-08-26T04:50:52.742Z,54.24
2022-08-26T04:53:58.513Z,53.49
2022-08-26T04:57:03.446Z,53.42
2022-08-26T05:00:14.401Z,52.47
2022-08-26T05:03:20.595Z,52.28
2022-08-26T05:06:25.532Z,52.03
2022-08-26T05:09:30.495Z,49.88
2022-08-26T05:12:35.545Z,50.50
2022-08-26T05:15:40.345Z,51.40
2022-08-26T05:18:46.567Z,51.96
2022-08-26T05:21:51.090Z,50.43
2022-08-26T05:24:56.014Z,50.99
2022-08-26T05:28:00.887Z,52.26
2022-08-26T05:31:14.788Z,53.70
2022-08-26T05:34:21.861Z,52.51
2022-08-26T05:37:27.790Z,52.83
2022-08-26T05:40:37.674Z,52.97
2022-08-26T05:43:42.821Z,53.50
2022-08-26T05:46:47.455Z,55.00
2022-08-26T05:49:52.096Z,54.08
2022-08-26T05:52:57.162Z,53.72
2022-08-26T05:56:01.789Z,54.34
2022-08-26T05:59:06.815Z,54.28
2022-08-26T06:02:18.936Z,54.16
2022-08-26T06:05:23.900Z,53.78
2022-08-26T06:08:29.303Z,53.73
2022-08-26T06:11:34.739Z,52.63
2022-08-26T06:14:39.225Z,52.69
2022-08-26T06:17:43.994Z,52.93
2022-08-26T06:20:57.999Z,52.68
2022-08-26T06:24:33.480Z,53.76
2022-08-26T06:27:38.506Z,53.24
2022-08-26T06:30:43.629Z,53.05
2022-08-26T06:33:48.388Z,52.66
2022-08-26T06:36:54.495Z,53.13
2022-08-26T06:39:59.385Z,53.15
2022-08-26T06:43:04.128Z,52.62
2022-08-26T06:46:11.960Z,51.95
2022-08-26T06:49:17.396Z,51.88
2022-08-26T06:52:24.582Z,51.25
2022-08-26T06:55:29.670Z,51.84
2022-08-26T06:58:36.195Z,52.16
2022-08-26T07:01:47.013Z,52.73
2022-08-26T07:04:54.394Z,52.12
2022-08-26T07:08:01.610Z,47.71
2022-08-26T07:11:08.550Z,49.42
2022-08-26T07:14:14.005Z,48.52
2022-08-26T07:17:18.518Z,47.46
2022-08-26T07:20:25.091Z,49.44
2022-08-26T07:23:29.620Z,51.13
2022-08-26T07:26:34.220Z,51.21
2022-08-26T07:29:40.779Z,51.99
2022-08-26T07:32:45.605Z,51.85
2022-08-26T07:35:50.231Z,52.37
2022-08-26T07:38:55.897Z,52.93
2022-08-26T07:42:07.278Z,54.52
2022-08-26T07:45:12.762Z,53.77
2022-08-26T07:48:18.840Z,54.19
2022-08-26T07:51:26.972Z,54.41
2022-08-26T07:54:32.596Z,54.07
2022-08-26T07:57:40.373Z,54.14
2022-08-26T08:00:49.387Z,53.93
2022-08-26T08:03:56.668Z,54.01
2022-08-26T08:07:02.227Z,54.17
2022-08-26T08:10:11.593Z,54.61
2022-08-26T08:13:17.233Z,54.98
2022-08-26T08:16:23.687Z,51.64
2022-08-26T08:19:36.713Z,51.81
2022-08-26T08:22:43.450Z,51.91
2022-08-26T08:25:49.963Z,51.77
2022-08-26T08:28:57.538Z,52.27
2022-08-26T08:32:02.206Z,52.98
2022-08-26T08:35:10.836Z,53.63
2022-08-26T08:38:15.861Z,53.39
2022-08-26T08:42:23.705Z,53.69
2022-08-26T08:46:07.178Z,54.28
2022-08-26T08:49:14.920Z,54.02
2022-08-26T08:52:28.580Z,53.92
2022-08-26T08:55:45.405Z,54.15
2022-08-26T08:58:58.137Z,54.91
2022-08-26T09:02:12.891Z,55.04
2022-08-26T09:05:34.956Z,55.08
2022-08-26T09:08:42.070Z,54.95
2022-08-26T09:11:47.547Z,55.27
2022-08-26T09:14:57.600Z,56.96
2022-08-26T09:18:19.667Z,58.73
2022-08-26T09:21:26.206Z,58.76
2022-08-26T09:24:41.909Z,58.38
2022-08-26T09:27:55.220Z,59.48
2022-08-26T09:31:12.469Z,59.42
2022-08-26T09:34:26.680Z,58.28
2022-08-26T09:37:43.914Z,60.76
2022-08-26T09:41:20.824Z,63.65
2022-08-26T09:44:25.740Z,62.74
2022-08-26T09:47:40.976Z,64.16
2022-08-26T09:50:59.056Z,65.51
2022-08-26T09:54:05.761Z,63.43
2022-08-26T09:57:28.446Z,63.57
2022-08-26T10:00:54.707Z,64.23
2022-08-26T10:04:13.217Z,63.28
2022-08-26T10:07:40.106Z,67.65
2022-08-26T10:10:46.766Z,66.44
2022-08-26T10:14:05.757Z,66.13
2022-08-26T10:17:36.972Z,65.97
2022-08-26T10:20:58.909Z,66.82
2022-08-26T10:24:05.949Z,67.37
2022-08-26T10:27:31.995Z,69.49
2022-08-26T10:30:42.802Z,72.25
2022-08-26T10:33:47.678Z,68.04
2022-08-26T10:37:13.604Z,69.26
2022-08-26T10:40:31.980Z,69.61
2022-08-26T10:44:00.240Z,70.65
2022-08-26T10:47:16.751Z,69.59
2022-08-26T10:50:25.849Z,69.19
2022-08-26T10:53:51.465Z,72.63
2022-08-26T10:57:18.472Z,75.06
2022-08-26T11:01:16.150Z,72.46
2022-08-26T11:04:42.371Z,71.56
2022-08-26T11:07:53.622Z,70.52
2022-08-26T11:11:01.301Z,69.89
2022-08-26T11:14:08.404Z,69.20
2022-08-26T11:17:13.069Z,69.83
2022-08-26T11:20:42.587Z,69.39
2022-08-26T11:23:50.524Z,68.58
2022-08-26T11:26:56.744Z,68.59
2022-08-26T11:30:10.073Z,70.10
2022-08-26T11:33:51.816Z,70.13
2022-08-26T11:36:58.331Z,69.98
2022-08-26T11:40:05.764Z,68.78
2022-08-26T11:43:19.642Z,70.10
2022-08-26T11:46:36.591Z,69.34
2022-08-26T11:49:41.813Z,69.12
2022-08-26T11:52:56.448Z,72.58
2022-08-26T11:56:07.186Z,70.52
2022-08-26T11:59:16.382Z,69.40
2022-08-26T12:02:22.018Z,69.17
2022-08-26T12:05:38.205Z,69.95
2022-08-26T12:08:46.155Z,69.79
2022-08-26T12:11:51.182Z,70.42
2022-08-26T12:15:16.515Z,71.95
2022-08-26T12:18:29.590Z,72.16
2022-08-26T12:21:35.594Z,71.40
2022-08-26T12:24:49.464Z,70.27
2022-08-26T12:27:54.210Z,69.96
2022-08-26T12:31:07.882Z,72.08
2022-08-26T12:34:18.760Z,71.71
2022-08-26T12:37:23.832Z,72.66
2022-08-26T12:40:46.303Z,72.23
2022-08-26T12:43:50.981Z,71.20
2022-08-26T12:47:01.942Z,71.35
2022-08-26T12:50:35.118Z,71.34
2022-08-26T12:53:44.555Z,69.99
2022-08-26T12:56:49.280Z,69.04
2022-08-26T13:00:28.707Z,68.69
2022-08-26T13:03:36.133Z,68.93
2022-08-26T13:06:41.248Z,69.02
2022-08-26T13:09:45.636Z,69.04
2022-08-26T13:12:50.284Z,69.35
2022-08-26T13:15:55.047Z,69.31
2022-08-26T13:19:05.851Z,69.66
2022-08-26T13:22:16.116Z,70.94
2022-08-26T13:25:20.653Z,72.20
2022-08-26T13:28:25.128Z,72.72
2022-08-26T13:31:32.442Z,73.04
2022-08-26T13:34:39.469Z,74.43
2022-08-26T13:37:43.930Z,75.42
2022-08-26T13:40:51.020Z,75.95
2022-08-26T13:43:55.631Z,76.29
2022-08-26T13:47:00.568Z,76.80
2022-08-26T13:50:06.789Z,76.15
2022-08-26T13:53:11.613Z,75.96
2022-08-26T13:56:16.130Z,75.89
2022-08-26T13:59:20.759Z,77.25
2022-08-26T14:02:25.562Z,77.87
2022-08-26T14:05:30.828Z,78.13
2022-08-26T14:08:35.613Z,77.73
2022-08-26T14:11:54.574Z,79.09
2022-08-26T14:14:59.528Z,79.38
2022-08-26T14:18:07.756Z,78.89
2022-08-26T14:21:14.786Z,77.92
2022-08-26T14:24:19.423Z,79.61
2022-08-26T14:27:24.175Z,80.16
2022-08-26T14:30:30.040Z,80.24
2022-08-26T14:33:38.924Z,79.77
2022-08-26T14:36:44.311Z,80.41
2022-08-26T14:39:49.501Z,81.33
2022-08-26T14:42:56.044Z,80.65
2022-08-26T14:46:03.516Z,81.36
2022-08-26T14:49:10.741Z,82.05
2022-08-26T14:52:15.651Z,82.69
2022-08-26T14:55:20.388Z,82.47
2022-08-26T14:58:25.238Z,82.97
2022-08-26T15:01:35.885Z,81.70
2022-08-26T15:04:41.421Z,80.62
2022-08-26T15:07:45.835Z,82.25
2022-08-26T15:10:50.562Z,82.68
2022-08-26T15:13:55.352Z,81.45
2022-08-26T15:17:00.052Z,81.20
2022-08-26T15:20:08.708Z,81.35
2022-08-26T15:23:13.280Z,81.45
2022-08-26T15:26:18.826Z,80.99
2022-08-26T15:29:24.775Z,85.64
2022-08-26T15:32:30.349Z,83.69
2022-08-26T15:35:36.052Z,86.31
2022-08-26T15:38:45.390Z,84.04
2022-08-26T15:41:50.118Z,84.17
2022-08-26T15:44:54.852Z,83.66
2022-08-26T15:48:01.579Z,84.17
2022-08-26T15:51:12.617Z,82.80
2022-08-26T15:54:18.671Z,82.57
2022-08-26T15:57:23.350Z,82.65
2022-08-26T16:00:28.271Z,83.34
2022-08-26T16:03:32.819Z,83.93
2022-08-26T16:06:40.002Z,83.61
2022-08-26T16:09:44.688Z,82.65
2022-08-26T16:12:51.132Z,82.98
2022-08-26T16:15:55.775Z,82.47
2022-08-26T16:19:05.551Z,82.38
2022-08-26T16:22:11.969Z,81.64
2022-08-26T16:25:16.709Z,81.60
2022-08-26T16:28:26.243Z,82.99
2022-08-26T16:31:31.239Z,83.35
2022-08-26T16:34:36.853Z,84.18
2022-08-26T16:37:41.333Z,85.77
2022-08-26T16:40:46.217Z,83.28
2022-08-26T16:43:50.899Z,82.98
2022-08-26T16:46:58.757Z,83.65
2022-08-26T16:50:05.001Z,84.71
2022-08-26T16:56:23.995Z,84.81
2022-08-26T16:59:38.403Z,84.69
2022-08-26T17:02:43.021Z,84.03
2022-08-26T17:05:47.719Z,85.02
2022-08-26T17:08:53.352Z,85.14
2022-08-26T17:11:57.995Z,86.08
2022-08-26T17:15:02.491Z,86.39
2022-08-26T17:18:08.879Z,86.05
2022-08-26T17:21:15.303Z,84.96
2022-08-26T17:24:20.091Z,84.94
2022-08-26T17:27:24.787Z,85.23
2022-08-26T17:30:30.918Z,85.20
2022-08-26T17:33:35.747Z,85.12
2022-08-26T17:36:42.788Z,84.96
2022-08-26T17:39:47.332Z,85.27
2022-08-26T17:42:53.267Z,85.04
2022-08-26T17:46:04.675Z,84.61
2022-08-26T17:49:12.779Z,84.85
2022-08-26T17:52:17.727Z,84.66
2022-08-26T17:55:22.632Z,84.21
2022-08-26T17:58:27.523Z,83.22
2022-08-26T18:01:33.867Z,82.58
2022-08-26T18:04:38.544Z,82.85
2022-08-26T18:07:43.987Z,82.34
2022-08-26T18:10:48.669Z,84.97
2022-08-26T18:13:54.108Z,83.31
2022-08-26T18:16:58.929Z,82.71
2022-08-26T18:20:03.942Z,82.83
2022-08-26T18:23:09.096Z,84.02
2022-08-26T18:26:32.536Z,85.79
2022-08-26T18:29:37.270Z,85.58
2022-08-26T18:32:51.515Z,84.37
2022-08-26T18:35:56.821Z,84.67
2022-08-26T18:39:02.098Z,85.54
2022-08-26T18:42:07.245Z,87.10
2022-08-26T18:45:15.959Z,87.44
2022-08-26T18:48:20.861Z,87.19
2022-08-26T18:51:30.447Z,86.53
2022-08-26T18:54:35.191Z,85.79
2022-08-26T18:57:40.206Z,84.43
2022-08-26T19:00:44.755Z,84.33
2022-08-26T19:03:49.344Z,85.75
2022-08-26T19:06:54.792Z,86.83
2022-08-26T19:09:59.440Z,86.12
2022-08-26T19:13:04.247Z,84.79
2022-08-26T19:16:25.147Z,86.05
2022-08-26T19:19:30.343Z,85.66
2022-08-26T19:22:34.989Z,85.30
2022-08-26T19:25:53.428Z,84.39
2022-08-26T19:28:58.276Z,84.50
2022-08-26T19:32:04.444Z,85.44
2022-08-26T19:35:10.149Z,84.70
2022-08-26T19:38:16.409Z,84.96
2022-08-26T19:41:29.485Z,85.34
2022-08-26T19:45:00.512Z,86.22
2022-08-26T19:48:06.439Z,87.91
2022-08-26T19:51:13.722Z,91.70
2022-08-26T19:54:18.540Z,91.47
2022-08-26T19:57:23.054Z,88.44
2022-08-26T20:00:29.844Z,86.50
2022-08-26T20:03:35.327Z,86.43
2022-08-26T20:06:40.156Z,86.44
2022-08-26T20:09:44.889Z,86.00
2022-08-26T20:12:52.758Z,88.45
2022-08-26T20:15:57.585Z,89.30
2022-08-26T20:19:21.176Z,89.91
2022-08-26T20:22:26.602Z,90.57
2022-08-26T20:25:33.314Z,87.76
2022-08-26T20:28:38.130Z,86.60
2022-08-26T20:31:44.886Z,85.37
2022-08-26T20:34:50.338Z,88.53
2022-08-26T20:37:55.050Z,90.00
2022-08-26T20:41:00.042Z,89.14
2022-08-26T20:44:05.845Z,88.16
2022-08-26T20:47:10.404Z,93.46
2022-08-26T20:50:15.319Z,92.03
2022-08-26T20:53:19.920Z,90.73
2022-08-26T20:56:29.061Z,90.60
2022-08-26T20:59:34.374Z,89.52
2022-08-26T21:02:39.266Z,87.19
2022-08-26T21:05:44.202Z,86.38
2022-08-26T21:08:49.309Z,87.35
2022-08-26T21:11:55.710Z,87.85
2022-08-26T21:15:01.477Z,88.18
2022-08-26T21:18:07.221Z,88.44
2022-08-26T21:21:12.701Z,90.21
2022-08-26T21:24:17.977Z,90.74
2022-08-26T21:27:26.288Z,91.08
2022-08-26T21:30:30.902Z,90.74
2022-08-26T21:33:36.253Z,91.19
2022-08-26T21:36:40.662Z,91.52
2022-08-26T21:39:45.583Z,91.47
2022-08-26T21:42:50.466Z,91.13
2022-08-26T21:45:57.549Z,91.42
2022-08-26T21:49:04.579Z,91.58
2022-08-26T21:52:09.283Z,91.20
2022-08-26T21:55:13.955Z,90.55
2022-08-26T21:58:18.490Z,90.96
2022-08-26T22:01:26.064Z,91.64
2022-08-26T22:04:30.669Z,91.50
2022-08-26T22:07:35.505Z,90.94
2022-08-26T22:10:43.236Z,91.08
2022-08-26T22:13:49.749Z,90.05
2022-08-26T22:16:55.603Z,89.08
2022-08-26T22:20:00.521Z,89.07
2022-08-26T22:23:06.410Z,89.41
2022-08-26T22:26:11.825Z,90.59
2022-08-26T22:29:16.787Z,89.05
2022-08-26T22:32:21.427Z,89.63
2022-08-26T22:35:29.312Z,89.94
2022-08-26T22:38:35.316Z,89.49
2022-08-26T22:41:40.965Z,88.81
2022-08-26T22:44:45.393Z,89.40
2022-08-26T22:47:50.172Z,86.37
2022-08-26T22:51:00.197Z,86.16
2022-08-26T22:54:05.827Z,86.18
2022-08-26T22:57:10.372Z,86.52
2022-08-26T23:00:15.820Z,88.74
2022-08-26T23:03:20.733Z,89.25
2022-08-26T23:06:27.230Z,87.51
2022-08-26T23:09:32.350Z,86.72
2022-08-26T23:12:38.634Z,86.44
2022-08-26T23:15:45.545Z,86.78
2022-08-26T23:18:51.254Z,86.75
2022-08-26T23:21:57.189Z,86.03
2022-08-26T23:25:01.627Z,85.31
2022-08-26T23:28:12.936Z,85.06
2022-08-26T23:31:17.203Z,86.66
2022-08-26T23:34:40.448Z,86.83
2022-08-26T23:37:48.855Z,86.58
2022-08-26T23:40:53.851Z,86.98
2022-08-26T23:44:03.274Z,86.41
2022-08-26T23:47:09.098Z,85.65
2022-08-26T23:50:13.876Z,87.18
2022-08-26T23:53:21.915Z,84.99
2022-08-26T23:56:26.951Z,84.87
2022-08-26T23:59:31.563Z,83.54
